PWSweather.com
Personal Weather Stations
Station Observations
KVAGLENALL
West Henrico, Glen Allen, VA 23060-6503

West HenricoGlen Allen, VA 23060-6503

Lat: 37.6554, Lon: -77.5693

Elevation: 273

Station Type: Davis Vantage Pro II

Latest ConditionsUpdated 2:45:15 PM EST Tuesday, Dec 6, 2016
Currently Today's Max Today's Min Today's Average
Temperature 44.2°F6.8°C 44.2°F6.8°C 41.4°F5.2°C 42.9°F6.1°C
Dew Point 43.7°F6.5°C 43.7°F6.5°C 38.7°F3.7°C 41.1°F5.1°C
Winds 7.0 mph NNE11.3 kmh NNE 7.0 mph NE11.3 kmh NE - 2.1 mph 3.4 kmh
Wind Gusts 11.1 mph17.9 kmh 13.1 mph21.1 kmh - -
Humidity 98% 98% 86% 93%
Pressure 29.76 in1007.8 mb 30.13 in1020.3 mb 29.76 in1007.8 mb -
Hour Temp Dew Point Humidity Winds Wind Gusts Pressure Precip Precip Rate Daily Precip Total
02:45 PM 44.2°F6.8°C 43.7°F6.5°C 98% 7.0 mph NNE11.3 kmh NNE 11.1 mph17.9 kmh 29.76 in1007.8 mb 0.13 in3.3 mm 0.00 in0.0 mm 0.28 in7.1 mm
02:30 PM 44.2°F6.8°C 43.7°F6.5°C 98% 3.0 mph W4.8 kmh W 9.1 mph14.6 kmh 29.77 in1008.1 mb 0.13 in3.3 mm 0.00 in0.0 mm 0.28 in7.1 mm
02:15 PM 44.1°F6.7°C 43.6°F6.4°C 98% 3.0 mph NNE4.8 kmh NNE 6.1 mph9.8 kmh 29.77 in1008.1 mb 0.15 in3.8 mm 0.28 in7.1 mm 0.28 in7.1 mm
02:00 PM 43.9°F6.6°C 43.4°F6.3°C 98% 5.0 mph NE8.0 kmh NE 6.1 mph9.8 kmh 29.78 in1008.5 mb 0.08 in2.0 mm 0.01 in0.3 mm 0.21 in5.3 mm
01:45 PM 43.6°F6.4°C 42.8°F6.0°C 97% 3.0 mph ENE4.8 kmh ENE 11.1 mph17.9 kmh 29.80 in1009.1 mb 0.07 in1.8 mm 0.04 in1.0 mm 0.20 in5.1 mm
01:30 PM 43.4°F6.3°C 42.6°F5.9°C 97% Calm Calm 9.1 mph14.6 kmh 29.80 in1009.1 mb 0.06 in1.5 mm 0.04 in1.0 mm 0.19 in4.8 mm
01:15 PM 43.1°F6.2°C 42.3°F5.7°C 97% 3.0 mph E4.8 kmh E 4.0 mph6.4 kmh 29.82 in1009.8 mb 0.05 in1.3 mm 0.00 in0.0 mm 0.18 in4.6 mm
01:00 PM 42.8°F6.0°C 42.0°F5.6°C 97% 6.0 mph NNE9.7 kmh NNE 13.1 mph21.1 kmh 29.85 in1010.8 mb 0.05 in1.3 mm 0.00 in0.0 mm 0.18 in4.6 mm
12:45 PM 42.8°F6.0°C 42.0°F5.6°C 97% 5.0 mph ENE8.0 kmh ENE 12.1 mph19.5 kmh 29.85 in1010.8 mb 0.07 in1.8 mm 0.00 in0.0 mm 0.18 in4.6 mm
12:30 PM 42.5°F5.8°C 41.7°F5.4°C 97% 7.0 mph NE11.3 kmh NE 9.1 mph14.6 kmh 29.89 in1012.2 mb 0.07 in1.8 mm 0.00 in0.0 mm 0.18 in4.6 mm
12:15 PM 42.4°F5.8°C 41.4°F5.2°C 96% 3.0 mph NE4.8 kmh NE 4.0 mph6.4 kmh 29.92 in1013.2 mb 0.10 in2.5 mm 0.00 in0.0 mm 0.18 in4.6 mm
12:00 PM 42.1°F5.6°C 41.1°F5.1°C 96% 1.0 mph NE1.6 kmh NE 7.1 mph11.4 kmh 29.95 in1014.2 mb 0.13 in3.3 mm 0.00 in0.0 mm 0.18 in4.6 mm
11:45 AM 41.8°F5.4°C 40.8°F4.9°C 96% Calm Calm 5.1 mph8.2 kmh 29.96 in1014.6 mb 0.14 in3.6 mm 0.04 in1.0 mm 0.18 in4.6 mm
11:30 AM 41.6°F5.3°C 40.6°F4.8°C 96% 5.0 mph NNE8.0 kmh NNE 5.1 mph8.2 kmh 29.98 in1015.2 mb 0.13 in3.3 mm 0.12 in3.0 mm 0.17 in4.3 mm
11:15 AM 41.6°F5.3°C 40.3°F4.6°C 95% 2.0 mph NE3.2 kmh NE 9.1 mph14.6 kmh 29.99 in1015.6 mb 0.10 in2.5 mm 0.16 in4.1 mm 0.14 in3.6 mm
11:00 AM 41.6°F5.3°C 40.3°F4.6°C 95% 1.0 mph NNE1.6 kmh NNE 6.1 mph9.8 kmh 30.01 in1016.3 mb 0.06 in1.5 mm 0.01 in0.3 mm 0.10 in2.5 mm
10:45 AM 41.6°F5.3°C 40.3°F4.6°C 95% 6.0 mph NNE9.7 kmh NNE 10.1 mph16.3 kmh 30.03 in1016.9 mb 0.05 in1.3 mm 0.00 in0.0 mm 0.09 in2.3 mm
10:30 AM 41.5°F5.3°C 40.2°F4.6°C 95% 1.0 mph E1.6 kmh E 1.0 mph1.6 kmh 30.03 in1016.9 mb 0.05 in1.3 mm 0.00 in0.0 mm 0.09 in2.3 mm
10:15 AM 41.5°F5.3°C 39.9°F4.4°C 94% 2.0 mph ENE3.2 kmh ENE 5.1 mph8.2 kmh 30.03 in1016.9 mb 0.05 in1.3 mm 0.00 in0.0 mm 0.09 in2.3 mm
10:00 AM 41.4°F5.2°C 39.8°F4.3°C 94% 3.0 mph NNE4.8 kmh NNE 10.1 mph16.3 kmh 30.03 in1016.9 mb 0.08 in2.0 mm 0.00 in0.0 mm 0.09 in2.3 mm
09:45 AM 41.4°F5.2°C 39.5°F4.2°C 93% 3.0 mph ENE4.8 kmh ENE 3.0 mph4.8 kmh 30.05 in1017.6 mb 0.09 in2.3 mm 0.04 in1.0 mm 0.09 in2.3 mm
09:30 AM 41.4°F5.2°C 39.3°F4.1°C 92% Calm Calm 1.0 mph1.6 kmh 30.05 in1017.6 mb 0.08 in2.0 mm 0.00 in0.0 mm 0.08 in2.0 mm
09:15 AM 41.4°F5.2°C 39.3°F4.1°C 92% 1.0 mph NE1.6 kmh NE 5.1 mph8.2 kmh 30.04 in1017.3 mb 0.08 in2.0 mm 0.08 in2.0 mm 0.08 in2.0 mm
09:00 AM 41.6°F5.3°C 39.2°F4.0°C 91% 5.0 mph ENE8.0 kmh ENE 6.1 mph9.8 kmh 30.06 in1017.9 mb 0.06 in1.5 mm 0.03 in0.8 mm 0.06 in1.5 mm
08:45 AM 41.8°F5.4°C 39.1°F3.9°C 90% 3.0 mph NNE4.8 kmh NNE 6.1 mph9.8 kmh 30.05 in1017.6 mb 0.04 in1.0 mm 0.08 in2.0 mm 0.04 in1.0 mm
08:30 AM 42.1°F5.6°C 39.1°F3.9°C 89% 2.0 mph ENE3.2 kmh ENE 3.0 mph4.8 kmh 30.05 in1017.6 mb 0.02 in0.5 mm 0.04 in1.0 mm 0.02 in0.5 mm
08:15 AM 42.4°F5.8°C 39.1°F3.9°C 88% 1.0 mph E1.6 kmh E 3.0 mph4.8 kmh 30.06 in1017.9 mb 0.01 in0.3 mm 0.00 in0.0 mm 0.01 in0.3 mm
08:00 AM 42.6°F5.9°C 39.0°F3.9°C 87% 3.0 mph NE4.8 kmh NE 4.0 mph6.4 kmh 30.07 in1018.3 mb 0.01 in0.3 mm 0.01 in0.3 mm 0.01 in0.3 mm
07:45 AM 42.6°F5.9°C 38.7°F3.7°C 86% 2.0 mph SE3.2 kmh SE 5.1 mph8.2 kmh 30.06 in1017.9 mb 0.00 in0.0 mm 0.00 in0.0 mm 0.00 in0.0 mm
07:30 AM 42.9°F6.1°C 39.0°F3.9°C 86% 1.0 mph E1.6 kmh E 7.1 mph11.4 kmh 30.07 in1018.3 mb 0.00 in0.0 mm 0.00 in0.0 mm 0.00 in0.0 mm
07:15 AM 43.1°F6.2°C 39.2°F4.0°C 86% 1.0 mph ENE1.6 kmh ENE 4.0 mph6.4 kmh 30.08 in1018.6 mb 0.00 in0.0 mm 0.00 in0.0 mm 0.00 in0.0 mm
07:00 AM 43.2°F6.2°C 39.6°F4.2°C 87% Calm Calm 4.0 mph6.4 kmh 30.09 in1019.0 mb 0.00 in0.0 mm 0.00 in0.0 mm 0.00 in0.0 mm
06:45 AM 43.2°F6.2°C 39.9°F4.4°C 88% 4.0 mph SE6.4 kmh SE 5.1 mph8.2 kmh 30.08 in1018.6 mb 0.00 in0.0 mm 0.00 in0.0 mm 0.00 in0.0 mm
06:30 AM 43.2°F6.2°C 39.9°F4.4°C 88% 3.0 mph E4.8 kmh E 5.1 mph8.2 kmh 30.08 in1018.6 mb 0.00 in0.0 mm 0.00 in0.0 mm 0.00 in0.0 mm
06:15 AM 43.4°F6.3°C 40.4°F4.7°C 89% 3.0 mph ENE4.8 kmh ENE 3.0 mph4.8 kmh 30.08 in1018.6 mb 0.00 in0.0 mm 0.00 in0.0 mm 0.00 in0.0 mm
06:00 AM 43.4°F6.3°C 40.1°F4.5°C 88% 3.0 mph E4.8 kmh E 7.1 mph11.4 kmh 30.07 in1018.3 mb 0.00 in0.0 mm 0.00 in0.0 mm 0.00 in0.0 mm
05:45 AM 43.4°F6.3°C 40.1°F4.5°C 88% 4.0 mph E6.4 kmh E 6.1 mph9.8 kmh 30.09 in1019.0 mb 0.00 in0.0 mm 0.00 in0.0 mm 0.00 in0.0 mm
05:30 AM 43.5°F6.4°C 40.2°F4.6°C 88% 4.0 mph NE6.4 kmh NE 4.0 mph6.4 kmh 30.09 in1019.0 mb 0.00 in0.0 mm 0.00 in0.0 mm 0.00 in0.0 mm
05:15 AM 43.6°F6.4°C 40.3°F4.6°C 88% 3.0 mph ESE4.8 kmh ESE 6.1 mph9.8 kmh 30.09 in1019.0 mb 0.00 in0.0 mm 0.00 in0.0 mm 0.00 in0.0 mm
05:00 AM 43.6°F6.4°C 40.3°F4.6°C 88% 4.0 mph ENE6.4 kmh ENE 5.1 mph8.2 kmh 30.09 in1019.0 mb 0.00 in0.0 mm 0.00 in0.0 mm 0.00 in0.0 mm
04:45 AM 43.6°F6.4°C 40.3°F4.6°C 88% Calm Calm 2.0 mph3.2 kmh 30.11 in1019.6 mb 0.00 in0.0 mm 0.00 in0.0 mm 0.00 in0.0 mm
04:30 AM 43.5°F6.4°C 40.5°F4.7°C 89% Calm Calm -- 30.10 in1019.3 mb 0.00 in0.0 mm 0.00 in0.0 mm 0.00 in0.0 mm
04:15 AM 43.4°F6.3°C 41.0°F5.0°C 91% 1.0 mph NE1.6 kmh NE 7.1 mph11.4 kmh 30.09 in1019.0 mb 0.00 in0.0 mm 0.00 in0.0 mm 0.00 in0.0 mm
04:00 AM 43.4°F6.3°C 41.3°F5.2°C 92% 2.0 mph NE3.2 kmh NE 4.0 mph6.4 kmh 30.09 in1019.0 mb 0.00 in0.0 mm 0.00 in0.0 mm 0.00 in0.0 mm
03:45 AM 43.2°F6.2°C 41.6°F5.3°C 94% 3.0 mph NE4.8 kmh NE 5.1 mph8.2 kmh 30.11 in1019.6 mb 0.00 in0.0 mm 0.00 in0.0 mm 0.00 in0.0 mm
03:30 AM 43.4°F6.3°C 42.1°F5.6°C 95% Calm Calm 5.1 mph8.2 kmh 30.11 in1019.6 mb 0.00 in0.0 mm 0.00 in0.0 mm 0.00 in0.0 mm
03:15 AM 43.1°F6.2°C 42.1°F5.6°C 96% 4.0 mph E6.4 kmh E 5.1 mph8.2 kmh 30.12 in1020.0 mb 0.00 in0.0 mm 0.00 in0.0 mm 0.00 in0.0 mm
03:00 AM 43.1°F6.2°C 42.3°F5.7°C 97% Calm Calm 1.0 mph1.6 kmh 30.12 in1020.0 mb 0.00 in0.0 mm 0.00 in0.0 mm 0.00 in0.0 mm
02:45 AM 43.1°F6.2°C 42.3°F5.7°C 97% Calm Calm -- 30.12 in1020.0 mb 0.00 in0.0 mm 0.00 in0.0 mm 0.00 in0.0 mm
02:30 AM 43.2°F6.2°C 42.4°F5.8°C 97% Calm Calm -- 30.13 in1020.3 mb 0.00 in0.0 mm 0.00 in0.0 mm 0.00 in0.0 mm
02:15 AM 43.2°F6.2°C 42.4°F5.8°C 97% Calm Calm -- 30.13 in1020.3 mb 0.00 in0.0 mm 0.00 in0.0 mm 0.00 in0.0 mm
02:00 AM 43.1°F6.2°C 42.3°F5.7°C 97% Calm Calm -- 30.13 in1020.3 mb 0.00 in0.0 mm 0.00 in0.0 mm 0.00 in0.0 mm
01:45 AM 43.1°F6.2°C 42.3°F5.7°C 97% Calm Calm -- 30.12 in1020.0 mb 0.00 in0.0 mm 0.00 in0.0 mm 0.00 in0.0 mm
01:30 AM 42.9°F6.1°C 42.1°F5.6°C 97% Calm Calm -- 30.12 in1020.0 mb 0.00 in0.0 mm 0.00 in0.0 mm 0.00 in0.0 mm
01:15 AM 43.1°F6.2°C 42.3°F5.7°C 97% Calm Calm 1.0 mph1.6 kmh 30.10 in1019.3 mb 0.00 in0.0 mm 0.00 in0.0 mm 0.00 in0.0 mm
01:00 AM 43.2°F6.2°C 42.4°F5.8°C 97% Calm Calm -- 30.10 in1019.3 mb 0.00 in0.0 mm 0.00 in0.0 mm 0.00 in0.0 mm
12:45 AM 43.4°F6.3°C 42.6°F5.9°C 97% Calm Calm 1.0 mph1.6 kmh 30.11 in1019.6 mb 0.00 in0.0 mm 0.00 in0.0 mm 0.00 in0.0 mm
12:30 AM 43.4°F6.3°C 42.6°F5.9°C 97% Calm Calm -- 30.11 in1019.6 mb 0.00 in0.0 mm 0.00 in0.0 mm 0.00 in0.0 mm
12:15 AM 43.5°F6.4°C 42.7°F5.9°C 97% Calm Calm 3.0 mph4.8 kmh 30.11 in1019.6 mb 0.00 in0.0 mm 0.00 in0.0 mm 0.00 in0.0 mm
12:00 AM 43.5°F6.4°C 42.7°F5.9°C 97% 1.0 mph N1.6 kmh N 1.0 mph1.6 kmh 30.11 in1019.6 mb 0.00 in0.0 mm 0.00 in0.0 mm 0.00 in0.0 mm